Graff, Missouri
Current Conditions -  °F | °C
As of 5:23 AM on Friday 24 Oct 2014 (Local Time) from KTBN Reporting Station
Overcast Overcast  
Wind Chill: 54°   Ceiling: 400
Heat Index: 54°   Visibility: 10mi
Dew Point: 54°   Wind: 1mph
Humidity: 100%   Direction: 240°WSW
Pressure: 30.12"   Gusts: NA
Location:  37.32°N, 92.28°W
Report Text: KTBN 241023Z AUTO 24001KT 10SM OVC004 12/12 A3012 RMK AO2
Loading
Personal Weather Stations






























Interactive Weather Map
Tropical Storm Tracking
New forecast layout! Learn more

10-Day Weather Forecast

Advertisements
Track Severe Weather on mobile